Time;durP1;ratioP1;P1;durP2;ratioP2;P2;SDS_P1;SDS_P2;PMS_P1;PMS_P2;Temp;Humidity;BMP_temperature;BMP_pressure;BME280_temperature;BME280_humidity;BME280_pressure;Samples;Min_cycle;Max_cycle;Signal;HPM_P1;HPM_P2
2022/08/04 00:02:23;;;;;;;2.23;1.87;;;28.90;54.40;;;;;;5050017;22;20493;-85
2022/08/04 00:04:54;;;;;;;1.57;1.47;;;28.90;54.40;;;;;;4990325;28;20438;-86
2022/08/04 00:07:34;;;;;;;1.83;1.60;;;28.80;54.30;;;;;;5012447;28;20474;-86
2022/08/04 00:10:08;;;;;;;2.00;1.50;;;28.90;54.30;;;;;;5002117;28;20472;-85
2022/08/04 00:12:41;;;;;;;3.40;2.10;;;28.80;54.60;;;;;;5083450;23;20532;-85
2022/08/04 00:15:12;;;;;;;2.90;1.80;;;28.80;54.50;;;;;;5012114;28;20438;-85
2022/08/04 00:17:45;;;;;;;2.30;1.83;;;28.80;55.10;;;;;;5031123;28;20459;-85
2022/08/04 00:20:20;;;;;;;1.90;1.40;;;28.70;55.20;;;;;;5013215;28;20516;-84
2022/08/04 00:22:57;;;;;;;2.93;2.60;;;28.70;55.50;;;;;;5040618;28;20472;-84
2022/08/04 00:29:51;;;;;;;;;;;;;;;;;;;;;
2022/08/04 00:35:47;;;;;;;1.80;1.70;;;28.60;57.30;;;;;;5186365;22;20566;-84
2022/08/04 00:38:18;;;;;;;3.97;3.63;;;28.60;57.30;;;;;;5052721;28;20589;-84
2022/08/04 00:41:16;;;;;;;2.60;2.23;;;28.50;57.40;;;;;;5056810;28;20559;-89
2022/08/04 00:44:01;;;;;;;2.87;2.10;;;28.60;58.00;;;;;;5037896;28;20501;-88
2022/08/04 00:47:34;;;;;;;5.87;2.23;;;28.70;59.30;;;;;;5030047;28;20545;-86
2022/08/04 00:50:39;;;;;;;3.77;2.33;;;28.50;62.00;;;;;;5034352;28;20509;-87
2022/08/04 00:53:58;;;;;;;2.57;2.30;;;28.30;65.00;;;;;;5146228;23;21056;-88
2022/08/04 00:57:05;;;;;;;2.57;1.80;;;28.10;66.70;;;;;;5055784;28;20477;-86
2022/08/04 01:00:06;;;;;;;2.23;2.07;;;28.10;67.70;;;;;;5060517;28;20458;-84
2022/08/04 01:02:53;;;;;;;3.37;2.33;;;28.20;68.30;;;;;;5039851;28;20481;-86
2022/08/04 01:06:00;;;;;;;4.40;2.57;;;27.90;68.10;;;;;;5038323;28;20464;-87
2022/08/04 01:09:49;;;;;;;2.70;2.17;;;27.70;68.70;;;;;;5024813;28;20424;-86
2022/08/04 01:12:38;;;;;;;3.73;2.40;;;27.50;69.80;;;;;;5027824;28;20467;-86
2022/08/04 01:15:23;;;;;;;2.70;2.30;;;27.50;71.10;;;;;;5020817;28;20442;-87
2022/08/04 01:18:21;;;;;;;2.50;2.23;;;27.60;71.00;;;;;;5023053;28;20489;-87
2022/08/04 01:21:14;;;;;;;2.57;2.37;;;27.60;70.60;;;;;;5022063;28;20441;-87
2022/08/04 01:24:24;;;;;;;3.53;2.70;;;27.60;71.80;;;;;;5027574;28;20441;-88
2022/08/04 01:27:05;;;;;;;3.10;2.40;;;27.50;71.00;;;;;;5003816;28;20469;-87
2022/08/04 01:33:12;;;;;;;2.43;2.23;;;27.00;68.90;;;;;;5008381;28;20496;-87
2022/08/04 01:36:04;;;;;;;2.80;2.20;;;26.70;69.90;;;;;;5048571;28;20450;-87
2022/08/04 01:38:35;;;;;;;2.87;2.33;;;26.70;69.00;;;;;;5026311;28;20525;-86
2022/08/04 01:41:06;;;;;;;2.20;1.80;;;26.60;69.50;;;;;;5030510;28;20444;-87
2022/08/04 01:43:45;;;;;;;2.93;2.43;;;26.60;70.10;;;;;;5035247;28;20962;-85
2022/08/04 01:46:15;;;;;;;2.57;2.33;;;26.50;70.50;;;;;;5042772;28;20449;-86
2022/08/04 01:49:08;;;;;;;3.03;2.73;;;26.50;71.40;;;;;;4971926;28;20974;-88
2022/08/04 01:51:58;;;;;;;3.30;2.60;;;26.40;72.50;;;;;;4967605;28;20548;-87
2022/08/04 01:54:30;;;;;;;2.53;2.33;;;26.50;72.90;;;;;;4975911;28;20432;-87
2022/08/04 01:57:10;;;;;;;3.90;2.73;;;26.50;73.40;;;;;;4972356;28;20538;-85
2022/08/04 02:00:10;;;;;;;3.10;2.47;;;26.50;73.90;;;;;;4973541;28;20432;-86
2022/08/04 02:02:45;;;;;;;4.30;3.20;;;26.50;74.10;;;;;;5132107;23;20501;-88
2022/08/04 02:05:17;;;;;;;3.20;2.30;;;26.40;75.20;;;;;;5025747;28;20548;-86
2022/08/04 02:08:18;;;;;;;2.53;2.33;;;26.60;75.00;;;;;;5040330;28;20862;-86
2022/08/04 02:11:14;;;;;;;4.33;2.70;;;26.50;74.80;;;;;;5053316;28;20949;-86
2022/08/04 02:13:51;;;;;;;3.63;2.97;;;26.30;75.80;;;;;;5028469;28;20450;-88
2022/08/04 02:16:37;;;;;;;3.23;2.93;;;26.10;77.50;;;;;;5020078;28;20516;-86
2022/08/04 02:19:44;;;;;;;3.63;2.80;;;25.90;78.60;;;;;;5017152;28;20573;-87
2022/08/04 02:22:17;;;;;;;3.57;3.27;;;25.80;80.10;;;;;;5010959;28;20627;-86
2022/08/04 02:24:49;;;;;;;3.93;2.80;;;25.80;80.20;;;;;;5011824;28;20528;-86
2022/08/04 02:27:23;;;;;;;4.80;3.33;;;25.70;80.90;;;;;;5016029;28;20456;-86
2022/08/04 02:29:57;;;;;;;2.43;2.23;;;25.80;80.90;;;;;;5004337;28;20488;-87
2022/08/04 02:32:38;;;;;;;6.77;2.97;;;25.80;80.90;;;;;;5003831;28;20541;-88
2022/08/04 02:35:19;;;;;;;2.60;2.40;;;25.70;81.70;;;;;;5003933;28;20570;-87
2022/08/04 02:37:49;;;;;;;3.90;3.50;;;25.70;82.50;;;;;;5004013;28;20502;-85
2022/08/04 02:40:20;;;;;;;4.30;2.67;;;25.90;82.00;;;;;;5004498;28;20473;-87
2022/08/04 02:42:52;;;;;;;2.63;2.43;;;25.80;82.30;;;;;;5003772;28;20890;-86
2022/08/04 02:45:31;;;;;;;6.03;3.20;;;25.60;83.30;;;;;;5017176;28;20541;-86
2022/08/04 02:48:02;;;;;;;3.67;2.70;;;25.50;84.20;;;;;;5007563;28;20557;-86
2022/08/04 02:50:36;;;;;;;3.93;2.73;;;25.40;85.40;;;;;;5016817;28;20454;-86
2022/08/04 02:53:04;;;;;;;3.00;2.50;;;25.40;85.90;;;;;;5024195;28;20468;-86
2022/08/04 02:55:36;;;;;;;3.20;2.70;;;25.50;85.80;;;;;;5025553;28;20497;-86
2022/08/04 02:58:08;;;;;;;4.33;2.97;;;25.30;86.20;;;;;;5022826;28;20493;-88
2022/08/04 03:00:42;;;;;;;3.30;2.87;;;25.30;87.00;;;;;;5026024;28;20442;-86
2022/08/04 03:03:23;;;;;;;3.43;3.20;;;25.10;88.00;;;;;;5016804;28;20485;-86
2022/08/04 03:06:12;;;;;;;3.37;2.80;;;25.20;89.10;;;;;;5023801;28;20914;-86
2022/08/04 03:09:29;;;;;;;3.70;2.90;;;25.20;89.30;;;;;;5021873;28;20458;-88
2022/08/04 03:12:08;;;;;;;4.20;3.10;;;24.90;89.60;;;;;;5024783;28;20466;-86
2022/08/04 03:14:58;;;;;;;3.03;2.80;;;25.00;90.20;;;;;;5016333;28;20517;-87
2022/08/04 03:18:00;;;;;;;3.00;2.80;;;25.00;90.40;;;;;;5022839;28;20482;-86
2022/08/04 03:20:43;;;;;;;3.27;2.97;;;24.80;90.90;;;;;;5039515;28;20511;-86
2022/08/04 03:23:47;;;;;;;2.67;2.47;;;24.90;91.00;;;;;;5034231;28;20469;-85
2022/08/04 03:26:40;;;;;;;3.07;2.80;;;24.90;90.90;;;;;;5029085;28;20458;-85
2022/08/04 03:29:28;;;;;;;5.97;3.17;;;24.70;91.40;;;;;;5035373;28;20445;-85
2022/08/04 03:32:36;;;;;;;3.70;3.40;;;24.70;91.40;;;;;;5038116;28;20466;-88
2022/08/04 03:35:33;;;;;;;4.93;3.30;;;24.60;91.70;;;;;;5022563;28;20446;-85
2022/08/04 03:37:59;;;;;;;3.00;2.80;;;24.60;92.00;;;;;;5026467;28;20481;-88
2022/08/04 03:41:23;;;;;;;3.50;3.20;;;24.70;91.90;;;;;;5032965;28;20457;-87
2022/08/04 03:44:38;;;;;;;2.57;2.33;;;24.60;92.10;;;;;;4988357;28;20512;-86
2022/08/04 03:47:08;;;;;;;3.87;3.57;;;24.70;92.30;;;;;;4980016;28;20496;-87
2022/08/04 03:50:07;;;;;;;3.93;2.97;;;24.80;92.50;;;;;;5000055;28;20454;-87
2022/08/04 03:53:08;;;;;;;3.37;3.07;;;24.80;92.50;;;;;;5004933;28;21020;-89
2022/08/04 03:55:47;;;;;;;3.13;2.87;;;24.80;92.60;;;;;;5012433;28;20469;-87
2022/08/04 03:58:51;;;;;;;3.00;2.70;;;24.50;92.70;;;;;;5012760;28;20472;-87
2022/08/04 04:01:41;;;;;;;3.50;3.20;;;24.50;92.40;;;;;;5007833;28;20462;-86
2022/08/04 04:05:05;;;;;;;3.70;3.40;;;24.50;92.60;;;;;;5011697;28;20451;-87
2022/08/04 04:07:45;;;;;;;3.33;2.87;;;24.40;92.70;;;;;;4988955;28;20434;-88
2022/08/04 04:10:32;;;;;;;3.77;2.90;;;24.60;92.40;;;;;;5012746;28;20447;-87
2022/08/04 04:13:28;;;;;;;3.70;3.30;;;24.60;92.40;;;;;;4980522;28;20471;-87
2022/08/04 04:16:11;;;;;;;3.20;3.00;;;24.60;92.60;;;;;;4996546;28;20467;-87
2022/08/04 04:18:56;;;;;;;3.40;3.10;;;24.60;92.40;;;;;;5001870;28;20968;-87
2022/08/04 04:21:50;;;;;;;3.00;2.80;;;24.60;92.40;;;;;;4987594;28;20474;-87
2022/08/04 04:24:26;;;;;;;2.93;2.70;;;24.50;92.60;;;;;;5005024;28;20466;-87
2022/08/04 04:27:32;;;;;;;3.23;2.93;;;24.30;92.70;;;;;;4986363;28;20459;-86
2022/08/04 04:30:06;;;;;;;4.80;3.07;;;24.40;92.80;;;;;;4988431;28;20459;-87
2022/08/04 04:33:01;;;;;;;4.30;4.00;;;24.40;92.80;;;;;;4979294;28;20488;-87
2022/08/04 04:35:40;;;;;;;3.43;3.13;;;24.50;92.70;;;;;;4986515;28;20463;-86
2022/08/04 04:38:43;;;;;;;3.70;2.97;;;24.40;92.80;;;;;;5002573;28;20475;-87
2022/08/04 04:41:33;;;;;;;3.20;2.73;;;24.50;92.90;;;;;;4985045;28;20890;-87
2022/08/04 04:44:28;;;;;;;3.50;3.13;;;24.60;92.50;;;;;;4983885;28;20467;-88
2022/08/04 04:47:03;;;;;;;5.30;3.23;;;24.70;92.50;;;;;;4979896;28;20542;-86
2022/08/04 04:50:07;;;;;;;3.13;2.67;;;24.70;92.50;;;;;;4997795;28;20455;-87
2022/08/04 04:53:11;;;;;;;5.53;3.37;;;24.70;92.30;;;;;;5002442;28;20546;-86
2022/08/04 04:55:52;;;;;;;3.80;3.50;;;24.70;92.10;;;;;;4992029;28;20466;-87
2022/08/04 04:58:20;;;;;;;3.50;3.20;;;24.70;91.90;;;;;;4977254;28;20514;-86
2022/08/04 05:01:13;;;;;;;4.10;3.70;;;24.70;92.00;;;;;;4994588;28;20454;-86
2022/08/04 05:03:59;;;;;;;3.83;3.43;;;24.90;91.90;;;;;;5009563;28;20482;-84
2022/08/04 05:06:29;;;;;;;3.40;3.10;;;24.90;91.60;;;;;;5004798;28;20462;-86
2022/08/04 05:09:06;;;;;;;3.20;3.00;;;24.90;91.20;;;;;;5021647;28;20441;-87
2022/08/04 05:11:57;;;;;;;3.33;3.00;;;25.00;90.40;;;;;;5005292;28;20545;-87
2022/08/04 05:14:32;;;;;;;3.60;3.30;;;24.90;90.40;;;;;;4985349;28;20461;-85
2022/08/04 05:17:20;;;;;;;3.67;3.37;;;24.80;90.70;;;;;;4990317;28;20543;-87
2022/08/04 05:19:59;;;;;;;4.30;3.90;;;24.60;90.90;;;;;;5002225;28;20462;-87
2022/08/04 05:22:31;;;;;;;3.47;3.00;;;24.70;91.00;;;;;;5008395;28;20490;-87
2022/08/04 05:25:15;;;;;;;6.23;3.40;;;24.60;91.10;;;;;;5013924;28;20537;-87
2022/08/04 05:28:05;;;;;;;3.97;3.67;;;24.70;90.60;;;;;;4995983;28;20452;-88
2022/08/04 05:30:37;;;;;;;4.80;3.33;;;24.80;90.30;;;;;;4994276;28;20469;-87
2022/08/04 05:33:09;;;;;;;4.17;3.73;;;24.80;89.90;;;;;;5016519;28;20494;-87
2022/08/04 05:35:48;;;;;;;3.57;3.23;;;24.70;90.00;;;;;;5021667;28;20451;-87
2022/08/04 05:38:38;;;;;;;4.63;3.47;;;24.70;90.20;;;;;;5007806;28;20473;-88
2022/08/04 05:41:07;;;;;;;3.93;3.60;;;24.70;89.50;;;;;;5021118;28;20462;-87
2022/08/04 05:43:37;;;;;;;4.80;3.23;;;24.70;89.20;;;;;;5001580;28;20457;-87
2022/08/04 05:46:04;;;;;;;3.73;3.43;;;24.80;89.10;;;;;;5016588;28;20510;-87
2022/08/04 05:48:34;;;;;;;3.23;2.93;;;24.80;89.30;;;;;;5010128;28;20498;-87
2022/08/04 05:51:03;;;;;;;3.10;2.80;;;24.90;88.70;;;;;;5012664;28;20446;-87
2022/08/04 05:53:31;;;;;;;4.27;3.17;;;25.00;87.90;;;;;;4993837;28;20446;-86
2022/08/04 05:56:00;;;;;;;3.43;3.13;;;25.20;86.90;;;;;;4991960;28;20459;-86
2022/08/04 05:58:29;;;;;;;3.43;3.13;;;25.20;85.80;;;;;;4997616;28;20517;-86
2022/08/04 06:01:00;;;;;;;4.07;3.43;;;25.10;85.60;;;;;;5014934;28;20458;-86
2022/08/04 06:03:29;;;;;;;2.87;2.67;;;25.00;86.10;;;;;;4996942;28;20573;-87
2022/08/04 06:05:56;;;;;;;3.80;3.50;;;25.00;86.20;;;;;;5001128;28;20447;-87
2022/08/04 06:08:24;;;;;;;6.90;3.73;;;25.10;86.10;;;;;;5003326;28;20459;-86
2022/08/04 06:10:52;;;;;;;4.00;3.67;;;25.10;86.10;;;;;;5015970;28;20474;-89
2022/08/04 06:13:27;;;;;;;6.77;3.50;;;25.00;86.60;;;;;;5014536;28;20546;-87
2022/08/04 06:16:15;;;;;;;11.40;3.50;;;25.00;87.70;;;;;;5019694;28;20438;-86
2022/08/04 06:18:48;;;;;;;3.97;3.47;;;25.00;86.80;;;;;;5022840;28;20633;-86
2022/08/04 06:21:37;;;;;;;4.33;3.90;;;25.20;86.70;;;;;;5014916;28;20498;-87
2022/08/04 06:24:09;;;;;;;4.07;3.40;;;25.60;84.80;;;;;;5019779;28;20470;-88
2022/08/04 06:26:37;;;;;;;3.70;3.20;;;25.70;83.70;;;;;;5018226;28;20519;-87
2022/08/04 06:29:09;;;;;;;3.83;3.53;;;25.80;83.80;;;;;;5010396;28;20458;-86
2022/08/04 06:31:46;;;;;;;3.17;2.97;;;26.10;82.20;;;;;;5007016;28;20552;-86
2022/08/04 06:34:34;;;;;;;3.53;3.20;;;26.10;82.10;;;;;;5004190;28;20478;-86
2022/08/04 06:37:03;;;;;;;4.10;3.47;;;26.20;81.90;;;;;;5003233;28;20450;-86
2022/08/04 06:39:37;;;;;;;4.53;3.30;;;26.10;81.70;;;;;;5002020;28;20489;-86
2022/08/04 06:42:05;;;;;;;3.50;3.20;;;26.30;81.70;;;;;;5000094;28;20463;-86
2022/08/04 06:44:45;;;;;;;3.80;3.40;;;26.30;80.80;;;;;;5001784;28;20471;-87
2022/08/04 06:47:12;;;;;;;3.73;3.30;;;26.40;80.80;;;;;;5017869;28;20441;-86
2022/08/04 06:49:41;;;;;;;3.80;3.43;;;26.60;80.40;;;;;;5006199;28;20554;-87
2022/08/04 06:52:16;;;;;;;3.73;3.43;;;26.30;79.70;;;;;;5005734;28;20521;-86
2022/08/04 06:54:47;;;;;;;4.60;3.10;;;26.40;80.00;;;;;;5005043;28;20908;-88
2022/08/04 06:57:16;;;;;;;3.67;3.37;;;26.50;79.60;;;;;;5009915;28;20529;-88
2022/08/04 06:59:44;;;;;;;4.03;3.03;;;26.60;79.00;;;;;;5008585;28;20692;-89
2022/08/04 07:02:21;;;;;;;3.60;3.30;;;26.60;79.40;;;;;;5020136;28;20481;-87
2022/08/04 07:04:48;;;;;;;4.20;2.90;;;27.00;77.70;;;;;;5037422;28;20426;-87
2022/08/04 07:07:16;;;;;;;3.53;2.93;;;27.30;76.40;;;;;;5033256;28;20450;-86
2022/08/04 07:09:43;;;;;;;3.93;3.10;;;27.30;75.70;;;;;;5019889;28;20510;-88
2022/08/04 07:12:11;;;;;;;3.50;3.20;;;27.30;76.00;;;;;;5044771;28;20464;-85
2022/08/04 07:14:39;;;;;;;3.73;3.40;;;27.20;75.50;;;;;;5050663;28;20478;-88
2022/08/04 07:17:09;;;;;;;3.90;3.40;;;27.20;75.40;;;;;;5024918;28;20551;-87
2022/08/04 07:19:36;;;;;;;3.63;3.33;;;27.40;74.90;;;;;;5020132;28;20792;-87
2022/08/04 07:22:06;;;;;;;3.73;3.43;;;27.60;74.10;;;;;;5018738;28;20476;-87
2022/08/04 07:24:43;;;;;;;3.40;3.10;;;27.60;74.20;;;;;;5024588;28;20476;-87
2022/08/04 07:27:10;;;;;;;3.97;3.37;;;27.90;73.50;;;;;;5004328;28;20483;-86
2022/08/04 07:29:39;;;;;;;3.80;3.40;;;27.70;73.40;;;;;;5036416;28;20480;-87
2022/08/04 07:32:09;;;;;;;3.60;3.30;;;28.00;72.60;;;;;;5011365;28;20470;-87
2022/08/04 07:34:37;;;;;;;3.40;3.10;;;28.20;71.30;;;;;;5034686;28;20466;-85
2022/08/04 07:37:03;;;;;;;3.70;3.40;;;28.00;71.90;;;;;;5027827;28;20515;-86
2022/08/04 07:39:31;;;;;;;3.23;3.03;;;28.20;71.00;;;;;;5018802;28;20467;-86
2022/08/04 07:42:00;;;;;;;3.60;3.30;;;28.40;70.60;;;;;;5020937;28;20485;-86
2022/08/04 07:44:31;;;;;;;4.07;3.30;;;28.50;70.00;;;;;;5015788;28;20463;-86
2022/08/04 07:47:00;;;;;;;3.43;3.13;;;28.90;69.30;;;;;;5036654;28;20445;-87
2022/08/04 07:49:27;;;;;;;3.50;3.03;;;29.00;68.70;;;;;;5028774;28;20456;-85
2022/08/04 07:52:15;;;;;;;3.40;2.80;;;29.40;67.10;;;;;;5028923;28;20481;-87
2022/08/04 07:54:43;;;;;;;4.20;3.40;;;29.50;65.90;;;;;;5033926;28;20464;-88
2022/08/04 07:57:10;;;;;;;3.77;3.47;;;30.10;65.10;;;;;;5039837;28;20544;-86
2022/08/04 07:59:43;;;;;;;4.80;3.27;;;31.10;61.70;;;;;;5014916;28;20509;-86
2022/08/04 08:02:17;;;;;;;3.23;2.93;;;31.40;59.00;;;;;;5021476;28;20501;-86
2022/08/04 08:04:46;;;;;;;3.10;2.90;;;32.30;57.50;;;;;;5019953;28;20525;-87
2022/08/04 08:07:20;;;;;;;4.17;2.93;;;33.60;54.70;;;;;;5014555;28;20446;-86
2022/08/04 08:09:47;;;;;;;3.13;2.83;;;35.10;51.10;;;;;;5008159;28;20537;-87
2022/08/04 08:12:14;;;;;;;7.37;2.70;;;35.30;49.20;;;;;;5009461;28;20498;-85
2022/08/04 08:15:04;;;;;;;3.03;2.83;;;35.10;48.50;;;;;;5032413;28;20442;-87
2022/08/04 08:17:31;;;;;;;2.80;2.50;;;36.40;47.00;;;;;;5018784;28;20526;-87
2022/08/04 08:19:59;;;;;;;2.90;2.70;;;37.30;45.70;;;;;;5004495;28;20493;-87
2022/08/04 08:22:27;;;;;;;4.20;2.73;;;37.90;44.90;;;;;;5024391;28;20497;-88
2022/08/04 08:24:54;;;;;;;3.13;2.83;;;39.00;42.00;;;;;;5024705;28;20442;-88
2022/08/04 08:27:22;;;;;;;3.30;2.80;;;38.60;41.90;;;;;;5025391;28;20804;-87
2022/08/04 08:29:55;;;;;;;3.80;2.60;;;38.40;42.10;;;;;;5025646;28;20450;-87
2022/08/04 08:32:30;;;;;;;2.37;2.17;;;38.60;40.90;;;;;;5002033;28;20531;-87
2022/08/04 08:34:57;;;;;;;3.03;2.57;;;38.20;41.70;;;;;;5022820;28;20465;-86
2022/08/04 08:37:27;;;;;;;3.50;2.77;;;39.10;40.10;;;;;;5026571;28;20526;-87
2022/08/04 08:40:10;;;;;;;5.63;2.40;;;39.50;39.50;;;;;;5024055;28;20508;-87
2022/08/04 08:42:53;;;;;;;3.07;2.77;;;40.40;38.30;;;;;;5015668;28;20580;-85
2022/08/04 08:45:31;;;;;;;3.23;2.60;;;41.00;37.10;;;;;;5014254;28;20450;-85
2022/08/04 08:48:29;;;;;;;3.37;3.07;;;42.40;34.90;;;;;;5030030;28;20537;-86
2022/08/04 08:50:56;;;;;;;3.30;2.50;;;42.80;33.70;;;;;;5028481;28;20454;-87
2022/08/04 08:53:50;;;;;;;4.17;2.30;;;42.50;33.60;;;;;;5034871;28;20457;-87
2022/08/04 08:56:46;;;;;;;2.40;2.20;;;42.00;33.50;;;;;;5034457;28;20448;-87
2022/08/04 08:59:38;;;;;;;3.70;2.60;;;42.00;33.30;;;;;;5034314;28;20489;-87
2022/08/04 09:02:20;;;;;;;3.10;2.80;;;42.10;33.00;;;;;;5036895;28;20513;-88
2022/08/04 09:05:32;;;;;;;4.00;2.40;;;42.20;32.80;;;;;;5016843;28;20441;-87
2022/08/04 09:08:22;;;;;;;2.50;2.40;;;42.30;32.80;;;;;;4990249;28;20442;-85
2022/08/04 09:10:54;;;;;;;2.70;2.50;;;42.00;32.80;;;;;;5014506;28;20484;-86
2022/08/04 09:13:32;;;;;;;4.87;2.07;;;42.30;32.40;;;;;;5016739;28;20453;-86
2022/08/04 09:16:16;;;;;;;3.30;3.00;;;41.60;32.40;;;;;;5016198;28;20446;-85
2022/08/04 09:19:05;;;;;;;3.37;2.37;;;39.60;34.70;;;;;;5008724;28;20779;-87
2022/08/04 09:21:38;;;;;;;2.73;2.53;;;38.20;36.70;;;;;;5021615;28;20469;-87
2022/08/04 09:24:08;;;;;;;2.60;2.40;;;38.00;37.30;;;;;;5017440;28;20485;-88
2022/08/04 09:27:12;;;;;;;2.50;2.40;;;38.30;37.20;;;;;;5019930;28;20437;-87
2022/08/04 09:29:42;;;;;;;2.77;2.50;;;38.30;37.40;;;;;;5007068;28;20458;-87
2022/08/04 09:32:33;;;;;;;2.70;2.50;;;39.00;36.10;;;;;;4999444;28;20548;-87
2022/08/04 09:35:13;;;;;;;2.43;2.33;;;38.20;36.80;;;;;;5027293;28;20485;-87
2022/08/04 09:37:59;;;;;;;1.97;1.87;;;38.80;35.90;;;;;;4983770;28;20458;-88
2022/08/04 09:40:39;;;;;;;2.80;1.90;;;39.90;34.70;;;;;;4991984;28;20862;-87
2022/08/04 09:43:44;;;;;;;5.57;2.53;;;40.80;33.20;;;;;;5017139;28;21003;-87
2022/08/04 09:46:57;;;;;;;5.00;2.67;;;41.10;32.70;;;;;;5015102;28;20529;-86
2022/08/04 09:49:52;;;;;;;2.17;2.07;;;41.90;32.10;;;;;;4988170;28;20538;-87
2022/08/04 09:52:47;;;;;;;2.43;2.17;;;42.10;31.10;;;;;;4997745;28;20486;-87
2022/08/04 09:55:34;;;;;;;3.10;2.20;;;41.80;31.20;;;;;;4991816;28;20457;-88
2022/08/04 09:58:37;;;;;;;2.10;2.00;;;41.80;31.20;;;;;;4988912;28;20898;-86
2022/08/04 10:01:12;;;;;;;7.20;1.83;;;41.90;30.40;;;;;;5009009;28;20532;-86
2022/08/04 10:03:47;;;;;;;2.57;2.03;;;40.90;31.30;;;;;;5013832;28;20489;-87
2022/08/04 10:07:01;;;;;;;2.07;1.87;;;40.30;32.30;;;;;;5015988;28;20480;-87
2022/08/04 10:09:49;;;;;;;2.17;2.07;;;39.80;33.00;;;;;;4987012;28;20907;-86
2022/08/04 10:12:51;;;;;;;3.53;2.13;;;39.90;32.70;;;;;;5014861;28;20525;-88
2022/08/04 10:15:30;;;;;;;1.63;1.53;;;39.60;33.30;;;;;;5009535;28;20540;-87
2022/08/04 10:18:13;;;;;;;1.47;1.30;;;40.50;29.90;;;;;;5007535;28;20445;-87
2022/08/04 10:21:23;;;;;;;1.93;1.83;;;39.60;30.20;;;;;;4998217;28;20834;-86
2022/08/04 10:24:36;;;;;;;2.90;2.60;;;37.80;32.00;;;;;;4985189;28;20460;-88
2022/08/04 10:27:24;;;;;;;1.80;1.40;;;37.00;34.30;;;;;;4994940;28;20543;-86
2022/08/04 10:30:02;;;;;;;2.13;2.00;;;36.30;33.40;;;;;;4995455;28;20493;-87
2022/08/04 10:33:08;;;;;;;3.90;1.57;;;36.30;34.80;;;;;;5006892;28;20945;-87
2022/08/04 10:35:59;;;;;;;2.77;1.87;;;36.40;35.00;;;;;;4989381;28;20449;-86
2022/08/04 10:38:51;;;;;;;2.37;1.60;;;36.40;35.70;;;;;;5004957;28;20461;-87
2022/08/04 10:42:00;;;;;;;2.30;1.77;;;36.40;35.70;;;;;;5017598;28;20508;-87
2022/08/04 10:45:04;;;;;;;1.97;1.80;;;36.40;36.30;;;;;;4999758;28;20499;-87
2022/08/04 10:48:01;;;;;;;6.00;2.00;;;36.20;36.10;;;;;;5001349;28;20562;-87
2022/08/04 10:50:31;;;;;;;2.70;1.60;;;36.00;35.80;;;;;;5005223;28;20477;-86
2022/08/04 10:53:13;;;;;;;2.90;1.70;;;35.90;35.00;;;;;;5010240;28;20467;-87
2022/08/04 10:55:55;;;;;;;2.53;1.10;;;35.70;34.80;;;;;;5000342;28;20459;-87
2022/08/04 10:58:49;;;;;;;2.80;1.47;;;35.70;35.40;;;;;;5009142;28;20441;-89
2022/08/04 11:01:35;;;;;;;1.70;1.60;;;36.30;35.20;;;;;;5019873;28;20469;-88
2022/08/04 11:04:23;;;;;;;1.73;1.50;;;36.90;34.10;;;;;;4991658;28;20521;-87
2022/08/04 11:07:15;;;;;;;1.60;1.50;;;37.30;33.30;;;;;;5004148;28;20843;-88
2022/08/04 11:09:58;;;;;;;1.77;1.43;;;37.90;33.50;;;;;;5006393;28;20481;-89
2022/08/04 11:12:34;;;;;;;6.93;1.60;;;38.30;32.30;;;;;;4992176;28;20471;-87
2022/08/04 11:15:12;;;;;;;2.77;1.27;;;38.00;32.00;;;;;;4988800;28;20542;-88
2022/08/04 11:17:55;;;;;;;3.37;2.00;;;37.80;31.60;;;;;;4992560;28;21040;-87
2022/08/04 11:20:57;;;;;;;3.57;1.47;;;37.30;32.30;;;;;;4989898;28;20460;-86
2022/08/04 11:23:32;;;;;;;4.30;1.97;;;36.90;33.30;;;;;;4994899;28;20470;-88
2022/08/04 11:26:23;;;;;;;4.93;1.80;;;37.00;34.80;;;;;;4998471;28;20442;-87
2022/08/04 11:29:11;;;;;;;1.63;1.53;;;37.00;35.60;;;;;;5002731;28;20427;-86
2022/08/04 11:31:43;;;;;;;2.50;1.87;;;36.50;37.00;;;;;;4979508;28;20489;-86
2022/08/04 11:34:25;;;;;;;4.50;1.97;;;36.10;37.80;;;;;;4982309;28;20446;-86
2022/08/04 11:37:12;;;;;;;3.13;2.23;;;35.60;38.60;;;;;;4992078;28;20466;-87
2022/08/04 11:39:49;;;;;;;2.30;2.10;;;35.30;39.40;;;;;;4985556;28;20807;-87
2022/08/04 11:42:30;;;;;;;4.63;1.77;;;35.00;40.80;;;;;;4986839;28;20472;-87
2022/08/04 11:45:29;;;;;;;2.40;2.20;;;34.80;40.60;;;;;;4987425;28;20466;-87
2022/08/04 11:48:24;;;;;;;3.30;2.13;;;34.50;40.90;;;;;;4977743;28;20457;-87
2022/08/04 11:51:05;;;;;;;3.23;2.20;;;34.50;41.50;;;;;;4981588;28;20486;-86
2022/08/04 11:53:36;;;;;;;3.30;2.70;;;34.50;42.10;;;;;;4984166;28;20459;-87
2022/08/04 11:56:13;;;;;;;3.53;2.40;;;34.60;42.20;;;;;;4982468;28;20464;-87
2022/08/04 12:00:23;;;;;;;2.53;2.20;;;34.70;42.00;;;;;;5011591;28;20451;-89
2022/08/04 12:03:03;;;;;;;2.63;2.00;;;34.80;41.60;;;;;;5000913;28;20500;-85
2022/08/04 12:05:45;;;;;;;2.40;2.20;;;34.40;41.10;;;;;;4978527;28;20460;-86
2022/08/04 12:09:03;;;;;;;;;;;;;;;;;;;;;
2022/08/04 12:12:12;;;;;;;2.03;1.83;;;34.10;42.30;;;;;;5110205;22;21838;-87
2022/08/04 12:14:48;;;;;;;2.20;2.00;;;34.20;42.60;;;;;;5012989;28;20477;-87
2022/08/04 12:17:41;;;;;;;4.20;1.63;;;34.30;42.30;;;;;;5029890;28;20577;-88
2022/08/04 12:20:23;;;;;;;2.43;1.87;;;34.30;42.60;;;;;;5035039;28;20466;-87
2022/08/04 12:23:00;;;;;;;3.40;1.90;;;34.30;42.70;;;;;;5028999;28;20508;-87
2022/08/04 12:25:33;;;;;;;3.70;1.90;;;34.20;42.60;;;;;;5019360;28;20426;-87
2022/08/04 12:28:06;;;;;;;3.20;1.83;;;34.20;42.30;;;;;;5008880;28;20446;-87
2022/08/04 12:31:06;;;;;;;2.20;2.00;;;34.10;42.40;;;;;;4998291;28;20506;-86
2022/08/04 12:34:08;;;;;;;3.77;1.87;;;33.90;42.60;;;;;;5014747;28;20466;-87
2022/08/04 12:36:56;;;;;;;2.10;2.00;;;33.90;43.10;;;;;;5007230;28;21221;-86
2022/08/04 12:39:36;;;;;;;2.23;2.03;;;33.70;43.70;;;;;;5021907;28;20458;-86
2022/08/04 12:42:23;;;;;;;3.80;2.03;;;33.60;44.30;;;;;;5015269;28;20474;-87
2022/08/04 12:44:53;;;;;;;4.17;2.83;;;33.60;44.60;;;;;;5027147;28;20473;-89
2022/08/04 12:47:26;;;;;;;2.67;2.47;;;33.50;45.00;;;;;;5005387;28;20450;-89
2022/08/04 12:50:03;;;;;;;2.80;2.00;;;33.50;45.20;;;;;;5010693;28;20491;-87
2022/08/04 12:52:41;;;;;;;3.77;2.27;;;33.60;45.50;;;;;;5020899;28;20484;-86
2022/08/04 12:55:32;;;;;;;5.77;3.83;;;33.60;45.70;;;;;;5023025;28;20493;-87
2022/08/04 12:58:02;;;;;;;2.53;2.10;;;33.70;45.70;;;;;;5020969;28;20450;-86
2022/08/04 13:00:35;;;;;;;2.90;1.93;;;33.80;45.40;;;;;;5023169;28;20469;-87
2022/08/04 13:03:13;;;;;;;3.10;2.07;;;33.80;45.00;;;;;;5024586;28;20561;-86
2022/08/04 13:05:41;;;;;;;2.50;2.30;;;33.70;44.90;;;;;;5027986;28;20457;-86
2022/08/04 13:08:10;;;;;;;3.93;2.53;;;33.70;44.80;;;;;;5011776;28;20446;-85
2022/08/04 13:10:41;;;;;;;2.67;2.30;;;33.60;44.70;;;;;;5022062;28;20533;-87
2022/08/04 13:13:14;;;;;;;2.00;1.80;;;33.80;44.60;;;;;;5021495;28;20498;-87
2022/08/04 13:15:42;;;;;;;3.73;2.70;;;33.70;44.50;;;;;;5022863;28;20438;-87
2022/08/04 13:18:14;;;;;;;4.33;2.33;;;33.60;44.50;;;;;;5019199;28;20455;-87
2022/08/04 13:20:42;;;;;;;3.30;2.10;;;33.50;44.50;;;;;;5050458;28;20524;-86
2022/08/04 13:23:14;;;;;;;3.17;2.10;;;33.80;44.50;;;;;;5056537;28;20449;-87
2022/08/04 13:25:49;;;;;;;6.37;2.77;;;34.10;43.90;;;;;;5027508;28;20434;-88
2022/08/04 13:28:39;;;;;;;4.80;2.33;;;34.40;43.50;;;;;;5027525;28;20434;-87
2022/08/04 13:31:13;;;;;;;5.60;2.50;;;34.50;43.00;;;;;;5027831;28;20569;-87
2022/08/04 13:33:47;;;;;;;4.97;2.03;;;34.60;42.80;;;;;;5014731;28;20459;-87
2022/08/04 13:36:16;;;;;;;4.87;4.37;;;34.70;42.90;;;;;;5024361;28;20438;-87
2022/08/04 13:39:07;;;;;;;2.97;2.70;;;34.80;42.90;;;;;;5026675;28;20971;-86
2022/08/04 13:41:38;;;;;;;2.30;1.53;;;34.80;42.70;;;;;;5022221;28;20470;-87
2022/08/04 13:44:08;;;;;;;2.87;1.70;;;34.90;42.70;;;;;;5021268;28;20501;-88
2022/08/04 13:46:48;;;;;;;2.50;1.90;;;35.10;42.70;;;;;;5034367;28;20458;-88
2022/08/04 13:49:18;;;;;;;3.33;1.90;;;35.00;42.50;;;;;;5036682;28;20454;-87
2022/08/04 13:52:07;;;;;;;3.53;1.83;;;35.00;41.90;;;;;;5028345;28;20505;-88
2022/08/04 13:54:46;;;;;;;2.60;1.70;;;35.50;41.70;;;;;;5036083;28;20461;-87
2022/08/04 13:57:15;;;;;;;2.40;2.03;;;35.70;41.20;;;;;;5029476;28;20454;-86
2022/08/04 13:59:46;;;;;;;3.63;2.77;;;35.80;41.50;;;;;;5024834;28;20523;-86
2022/08/04 14:02:32;;;;;;;1.93;1.73;;;35.50;41.90;;;;;;5024645;28;20472;-87
2022/08/04 14:05:07;;;;;;;2.40;2.00;;;35.30;42.70;;;;;;5023254;28;20450;-87
2022/08/04 14:07:49;;;;;;;3.40;2.13;;;35.00;43.30;;;;;;5022399;28;20433;-87
2022/08/04 14:10:16;;;;;;;3.30;2.03;;;34.70;44.10;;;;;;4992069;28;20493;-87
2022/08/04 14:12:48;;;;;;;3.00;2.80;;;34.80;44.00;;;;;;5000563;28;20486;-85
2022/08/04 14:15:32;;;;;;;1.77;1.67;;;34.70;43.60;;;;;;4987629;28;20459;-86
2022/08/04 14:18:21;;;;;;;2.30;2.10;;;34.50;43.20;;;;;;5002597;28;20455;-86